sensor_id;sensor_type;location;lat;lon;timestamp;pressure;altitude;pressure_sealevel;temperature;humidity
28456;BME280;15682;56.742;38.866;2023-04-08T00:00:57;100830.0;;;2.0;54.4
28456;BME280;15682;56.742;38.866;2023-04-08T00:02:57;100830.0;;;2.0;54.3
28456;BME280;15682;56.742;38.866;2023-04-08T00:04:57;100830.0;;;2.0;54.3
28456;BME280;15682;56.742;38.866;2023-04-08T00:06:57;100830.0;;;1.9;54.3
28456;BME280;15682;56.742;38.866;2023-04-08T00:08:56;100830.0;;;1.9;54.3
28456;BME280;15682;56.742;38.866;2023-04-08T00:10:56;100830.0;;;1.9;54.3
28456;BME280;15682;56.742;38.866;2023-04-08T00:12:57;100830.0;;;1.9;54.6
28456;BME280;15682;56.742;38.866;2023-04-08T00:14:56;100830.0;;;1.9;54.9
28456;BME280;15682;56.742;38.866;2023-04-08T00:16:56;100830.0;;;1.9;54.9
28456;BME280;15682;56.742;38.866;2023-04-08T00:18:56;100830.0;;;1.9;54.9
28456;BME280;15682;56.742;38.866;2023-04-08T00:20:56;100820.0;;;1.9;54.9
28456;BME280;15682;56.742;38.866;2023-04-08T00:22:56;100820.0;;;1.9;55.3
28456;BME280;15682;56.742;38.866;2023-04-08T00:24:56;100820.0;;;2.0;55.3
28456;BME280;15682;56.742;38.866;2023-04-08T00:26:56;100820.0;;;2.0;55.3
28456;BME280;15682;56.742;38.866;2023-04-08T00:28:56;100820.0;;;2.0;55.3
28456;BME280;15682;56.742;38.866;2023-04-08T00:30:56;100820.0;;;1.8;56.2
28456;BME280;15682;56.742;38.866;2023-04-08T00:32:56;100820.0;;;1.8;56.4
28456;BME280;15682;56.742;38.866;2023-04-08T00:34:56;100830.0;;;1.7;56.4
28456;BME280;15682;56.742;38.866;2023-04-08T00:36:56;100830.0;;;1.7;56.4
28456;BME280;15682;56.742;38.866;2023-04-08T00:38:55;100830.0;;;1.7;56.4
28456;BME280;15682;56.742;38.866;2023-04-08T00:40:55;100830.0;;;1.7;56.7
28456;BME280;15682;56.742;38.866;2023-04-08T00:42:56;100830.0;;;1.7;56.7
28456;BME280;15682;56.742;38.866;2023-04-08T00:44:55;100830.0;;;1.6;56.7
28456;BME280;15682;56.742;38.866;2023-04-08T00:46:55;100830.0;;;1.6;56.7
28456;BME280;15682;56.742;38.866;2023-04-08T00:48:55;100830.0;;;1.6;56.7
28456;BME280;15682;56.742;38.866;2023-04-08T00:50:55;100830.0;;;1.6;57.3
28456;BME280;15682;56.742;38.866;2023-04-08T00:52:55;100830.0;;;1.6;57.3
28456;BME280;15682;56.742;38.866;2023-04-08T00:54:55;100830.0;;;1.6;57.3
28456;BME280;15682;56.742;38.866;2023-04-08T00:56:55;100830.0;;;1.6;57.3
28456;BME280;15682;56.742;38.866;2023-04-08T00:58:54;100830.0;;;1.6;57.3
28456;BME280;15682;56.742;38.866;2023-04-08T01:00:59;100830.0;;;1.6;57.3
28456;BME280;15682;56.742;38.866;2023-04-08T01:03:00;100830.0;;;1.6;57.6
28456;BME280;15682;56.742;38.866;2023-04-08T01:04:59;100830.0;;;1.7;57.6
28456;BME280;15682;56.742;38.866;2023-04-08T01:07:00;100830.0;;;1.7;57.6
28456;BME280;15682;56.742;38.866;2023-04-08T01:08:54;100830.0;;;1.6;57.8
28456;BME280;15682;56.742;38.866;2023-04-08T01:10:57;100830.0;;;1.6;58.4
28456;BME280;15682;56.742;38.866;2023-04-08T01:12:56;100830.0;;;1.6;58.5
28456;BME280;15682;56.742;38.866;2023-04-08T01:14:59;100830.0;;;1.5;58.5
28456;BME280;15682;56.742;38.866;2023-04-08T01:16:54;100830.0;;;1.5;58.5
28456;BME280;15682;56.742;38.866;2023-04-08T01:18:54;100830.0;;;1.5;58.5
28456;BME280;15682;56.742;38.866;2023-04-08T01:20:54;100830.0;;;1.4;58.5
28456;BME280;15682;56.742;38.866;2023-04-08T01:23:12;100830.0;;;1.4;58.9
28456;BME280;15682;56.742;38.866;2023-04-08T01:24:58;100830.0;;;1.4;59.0
28456;BME280;15682;56.742;38.866;2023-04-08T01:26:54;100830.0;;;1.4;59.0
28456;BME280;15682;56.742;38.866;2023-04-08T01:28:57;100830.0;;;1.4;59.0
28456;BME280;15682;56.742;38.866;2023-04-08T01:30:55;100830.0;;;1.4;59.0
28456;BME280;15682;56.742;38.866;2023-04-08T01:32:54;100830.0;;;1.4;59.1
28456;BME280;15682;56.742;38.866;2023-04-08T01:34:53;100830.0;;;1.5;59.1
28456;BME280;15682;56.742;38.866;2023-04-08T01:36:54;100830.0;;;1.5;59.1
28456;BME280;15682;56.742;38.866;2023-04-08T01:38:53;100830.0;;;1.5;59.8
28456;BME280;15682;56.742;38.866;2023-04-08T01:40:53;100830.0;;;1.5;59.8
28456;BME280;15682;56.742;38.866;2023-04-08T01:42:55;100830.0;;;1.3;59.4
28456;BME280;15682;56.742;38.866;2023-04-08T01:44:55;100830.0;;;1.3;59.4
28456;BME280;15682;56.742;38.866;2023-04-08T01:46:53;100830.0;;;1.3;59.4
28456;BME280;15682;56.742;38.866;2023-04-08T01:48:53;100830.0;;;1.3;59.4
28456;BME280;15682;56.742;38.866;2023-04-08T01:50:54;100830.0;;;1.3;59.4
28456;BME280;15682;56.742;38.866;2023-04-08T01:52:54;100830.0;;;1.3;59.9
28456;BME280;15682;56.742;38.866;2023-04-08T01:54:52;100830.0;;;1.2;59.9
28456;BME280;15682;56.742;38.866;2023-04-08T01:56:53;100830.0;;;1.2;59.9
28456;BME280;15682;56.742;38.866;2023-04-08T01:58:53;100830.0;;;1.2;60.4
28456;BME280;15682;56.742;38.866;2023-04-08T02:00:53;100830.0;;;1.2;59.9
28456;BME280;15682;56.742;38.866;2023-04-08T02:02:52;100830.0;;;1.2;60.3
28456;BME280;15682;56.742;38.866;2023-04-08T02:04:52;100830.0;;;1.1;60.4
28456;BME280;15682;56.742;38.866;2023-04-08T02:06:52;100830.0;;;1.1;60.4
28456;BME280;15682;56.742;38.866;2023-04-08T02:08:52;100830.0;;;1.1;60.7
28456;BME280;15682;56.742;38.866;2023-04-08T02:10:51;100830.0;;;1.1;61.2
28456;BME280;15682;56.742;38.866;2023-04-08T02:12:51;100840.0;;;1.1;62.9
28456;BME280;15682;56.742;38.866;2023-04-08T02:14:52;100840.0;;;1.1;62.4
28456;BME280;15682;56.742;38.866;2023-04-08T02:16:53;100840.0;;;1.0;61.1
28456;BME280;15682;56.742;38.866;2023-04-08T02:18:55;100840.0;;;1.0;62.1
28456;BME280;15682;56.742;38.866;2023-04-08T02:20:55;100840.0;;;1.0;62.1
28456;BME280;15682;56.742;38.866;2023-04-08T02:22:59;100840.0;;;1.0;63.1
28456;BME280;15682;56.742;38.866;2023-04-08T02:24:51;100840.0;;;1.0;63.1
28456;BME280;15682;56.742;38.866;2023-04-08T02:26:51;100840.0;;;1.0;62.7
28456;BME280;15682;56.742;38.866;2023-04-08T02:28:51;100840.0;;;1.0;63.3
28456;BME280;15682;56.742;38.866;2023-04-08T02:30:52;100840.0;;;1.0;64.5
28456;BME280;15682;56.742;38.866;2023-04-08T02:32:53;100840.0;;;0.7;65.0
28456;BME280;15682;56.742;38.866;2023-04-08T02:34:51;100840.0;;;0.8;64.6
28456;BME280;15682;56.742;38.866;2023-04-08T02:36:51;100840.0;;;0.8;65.9
28456;BME280;15682;56.742;38.866;2023-04-08T02:38:50;100840.0;;;0.5;67.4
28456;BME280;15682;56.742;38.866;2023-04-08T02:40:50;100840.0;;;0.4;69.9
28456;BME280;15682;56.742;38.866;2023-04-08T02:42:50;100840.0;;;0.3;69.0
28456;BME280;15682;56.742;38.866;2023-04-08T02:44:50;100840.0;;;0.2;69.9
28456;BME280;15682;56.742;38.866;2023-04-08T02:46:50;100840.0;;;0.1;70.7
28456;BME280;15682;56.742;38.866;2023-04-08T02:48:50;100840.0;;;0.1;70.7
28456;BME280;15682;56.742;38.866;2023-04-08T02:50:50;100840.0;;;-0.0;71.2
28456;BME280;15682;56.742;38.866;2023-04-08T02:52:50;100840.0;;;-0.0;71.8
28456;BME280;15682;56.742;38.866;2023-04-08T02:54:49;100840.0;;;-0.1;70.9
28456;BME280;15682;56.742;38.866;2023-04-08T02:56:49;100840.0;;;-0.1;71.5
28456;BME280;15682;56.742;38.866;2023-04-08T02:58:50;100840.0;;;0.4;65.9
28456;BME280;15682;56.742;38.866;2023-04-08T03:00:49;100840.0;;;0.6;66.9
28456;BME280;15682;56.742;38.866;2023-04-08T03:02:49;100840.0;;;0.8;66.9
28456;BME280;15682;56.742;38.866;2023-04-08T03:04:49;100840.0;;;0.8;65.0
28456;BME280;15682;56.742;38.866;2023-04-08T03:06:49;100840.0;;;0.8;63.0
28456;BME280;15682;56.742;38.866;2023-04-08T03:08:49;100840.0;;;1.0;64.9
28456;BME280;15682;56.742;38.866;2023-04-08T03:10:49;100840.0;;;0.8;65.4
28456;BME280;15682;56.742;38.866;2023-04-08T03:12:49;100840.0;;;0.8;66.0
28456;BME280;15682;56.742;38.866;2023-04-08T03:14:49;100840.0;;;0.9;64.9
28456;BME280;15682;56.742;38.866;2023-04-08T03:16:49;100840.0;;;1.0;65.7
28456;BME280;15682;56.742;38.866;2023-04-08T03:18:49;100840.0;;;1.0;65.9
28456;BME280;15682;56.742;38.866;2023-04-08T03:20:49;100840.0;;;0.8;65.0
28456;BME280;15682;56.742;38.866;2023-04-08T03:22:48;100840.0;;;0.8;67.2
28456;BME280;15682;56.742;38.866;2023-04-08T03:24:48;100840.0;;;0.9;65.8
28456;BME280;15682;56.742;38.866;2023-04-08T03:26:48;100840.0;;;0.9;64.9
28456;BME280;15682;56.742;38.866;2023-04-08T03:28:48;100840.0;;;1.1;64.5
28456;BME280;15682;56.742;38.866;2023-04-08T03:30:48;100850.0;;;1.1;65.6
28456;BME280;15682;56.742;38.866;2023-04-08T03:32:48;100850.0;;;1.2;65.2
28456;BME280;15682;56.742;38.866;2023-04-08T03:34:48;100850.0;;;1.3;65.7
28456;BME280;15682;56.742;38.866;2023-04-08T03:36:48;100850.0;;;1.1;65.7
28456;BME280;15682;56.742;38.866;2023-04-08T03:38:48;100850.0;;;1.1;63.4
28456;BME280;15682;56.742;38.866;2023-04-08T03:40:48;100850.0;;;1.1;63.4
28456;BME280;15682;56.742;38.866;2023-04-08T03:42:48;100850.0;;;1.1;62.8
28456;BME280;15682;56.742;38.866;2023-04-08T03:44:48;100850.0;;;1.4;62.2
28456;BME280;15682;56.742;38.866;2023-04-08T03:46:48;100850.0;;;1.5;62.2
28456;BME280;15682;56.742;38.866;2023-04-08T03:48:47;100850.0;;;1.5;62.2
28456;BME280;15682;56.742;38.866;2023-04-08T03:50:47;100850.0;;;1.6;60.6
28456;BME280;15682;56.742;38.866;2023-04-08T03:52:47;100850.0;;;1.5;57.1
28456;BME280;15682;56.742;38.866;2023-04-08T03:54:47;100850.0;;;1.7;58.4
28456;BME280;15682;56.742;38.866;2023-04-08T03:56:48;100850.0;;;1.7;58.4
28456;BME280;15682;56.742;38.866;2023-04-08T03:58:47;100850.0;;;1.9;56.0
28456;BME280;15682;56.742;38.866;2023-04-08T04:00:47;100850.0;;;2.1;59.0
28456;BME280;15682;56.742;38.866;2023-04-08T04:02:47;100850.0;;;2.3;55.5
28456;BME280;15682;56.742;38.866;2023-04-08T04:04:47;100850.0;;;2.3;55.8
28456;BME280;15682;56.742;38.866;2023-04-08T04:06:47;100850.0;;;2.5;58.7
28456;BME280;15682;56.742;38.866;2023-04-08T04:08:48;100850.0;;;2.3;55.1
28456;BME280;15682;56.742;38.866;2023-04-08T04:10:48;100850.0;;;2.5;56.0
28456;BME280;15682;56.742;38.866;2023-04-08T04:12:49;100860.0;;;2.5;55.4
28456;BME280;15682;56.742;38.866;2023-04-08T04:14:48;100860.0;;;2.5;55.8
28456;BME280;15682;56.742;38.866;2023-04-08T04:16:48;100860.0;;;2.5;54.1
28456;BME280;15682;56.742;38.866;2023-04-08T04:18:48;100870.0;;;2.5;54.3
28456;BME280;15682;56.742;38.866;2023-04-08T04:20:49;100870.0;;;2.6;54.5
28456;BME280;15682;56.742;38.866;2023-04-08T04:22:49;100870.0;;;2.6;53.7
28456;BME280;15682;56.742;38.866;2023-04-08T04:24:49;100870.0;;;2.9;55.0
28456;BME280;15682;56.742;38.866;2023-04-08T04:26:49;100870.0;;;2.9;54.2
28456;BME280;15682;56.742;38.866;2023-04-08T04:28:49;100870.0;;;3.0;54.8
28456;BME280;15682;56.742;38.866;2023-04-08T04:30:50;100870.0;;;3.0;53.2
28456;BME280;15682;56.742;38.866;2023-04-08T04:32:50;100870.0;;;3.0;53.3
28456;BME280;15682;56.742;38.866;2023-04-08T04:34:50;100870.0;;;3.2;53.4
28456;BME280;15682;56.742;38.866;2023-04-08T04:36:50;100870.0;;;3.3;52.0
28456;BME280;15682;56.742;38.866;2023-04-08T04:38:50;100870.0;;;3.3;52.2
28456;BME280;15682;56.742;38.866;2023-04-08T04:40:51;100870.0;;;3.3;52.6
28456;BME280;15682;56.742;38.866;2023-04-08T04:42:51;100870.0;;;3.8;56.6
28456;BME280;15682;56.742;38.866;2023-04-08T04:44:51;100870.0;;;3.9;53.7
28456;BME280;15682;56.742;38.866;2023-04-08T04:46:51;100870.0;;;3.9;51.9
28456;BME280;15682;56.742;38.866;2023-04-08T04:48:51;100870.0;;;3.8;51.2
28456;BME280;15682;56.742;38.866;2023-04-08T04:50:55;100870.0;;;3.8;51.2
28456;BME280;15682;56.742;38.866;2023-04-08T04:52:52;100870.0;;;4.0;53.0
28456;BME280;15682;56.742;38.866;2023-04-08T04:54:52;100870.0;;;4.1;51.1
28456;BME280;15682;56.742;38.866;2023-04-08T04:56:52;100870.0;;;4.1;52.4
28456;BME280;15682;56.742;38.866;2023-04-08T04:58:53;100870.0;;;4.3;50.4
28456;BME280;15682;56.742;38.866;2023-04-08T05:00:53;100870.0;;;4.3;51.9
28456;BME280;15682;56.742;38.866;2023-04-08T05:02:53;100870.0;;;4.3;49.8
28456;BME280;15682;56.742;38.866;2023-04-08T05:04:53;100870.0;;;4.3;51.7
28456;BME280;15682;56.742;38.866;2023-04-08T05:06:54;100870.0;;;4.4;49.3
28456;BME280;15682;56.742;38.866;2023-04-08T05:08:54;100870.0;;;4.4;49.4
28456;BME280;15682;56.742;38.866;2023-04-08T05:10:54;100870.0;;;4.6;49.4
28456;BME280;15682;56.742;38.866;2023-04-08T05:12:55;100870.0;;;4.7;49.4
28456;BME280;15682;56.742;38.866;2023-04-08T05:14:57;100870.0;;;4.9;48.7
28456;BME280;15682;56.742;38.866;2023-04-08T05:16:55;100870.0;;;4.9;49.1
28456;BME280;15682;56.742;38.866;2023-04-08T05:18:55;100870.0;;;5.0;49.2
28456;BME280;15682;56.742;38.866;2023-04-08T05:20:56;100870.0;;;5.0;48.7
28456;BME280;15682;56.742;38.866;2023-04-08T05:22:56;100870.0;;;4.8;49.3
28456;BME280;15682;56.742;38.866;2023-04-08T05:24:56;100870.0;;;4.8;49.0
28456;BME280;15682;56.742;38.866;2023-04-08T05:26:56;100870.0;;;5.3;49.3
28456;BME280;15682;56.742;38.866;2023-04-08T05:28:57;100870.0;;;5.3;49.3
28456;BME280;15682;56.742;38.866;2023-04-08T05:30:57;100870.0;;;5.3;48.5
28456;BME280;15682;56.742;38.866;2023-04-08T05:32:58;100870.0;;;5.1;49.2
28456;BME280;15682;56.742;38.866;2023-04-08T05:35:01;100870.0;;;5.3;48.6
28456;BME280;15682;56.742;38.866;2023-04-08T05:36:58;100870.0;;;5.3;49.2
28456;BME280;15682;56.742;38.866;2023-04-08T05:38:58;100870.0;;;5.3;48.4
28456;BME280;15682;56.742;38.866;2023-04-08T05:40:58;100870.0;;;5.5;48.6
28456;BME280;15682;56.742;38.866;2023-04-08T05:42:59;100870.0;;;5.7;49.5
28456;BME280;15682;56.742;38.866;2023-04-08T05:44:59;100870.0;;;5.8;49.5
28456;BME280;15682;56.742;38.866;2023-04-08T05:46:59;100880.0;;;6.2;50.2
28456;BME280;15682;56.742;38.866;2023-04-08T05:49:00;100880.0;;;6.2;50.1
28456;BME280;15682;56.742;38.866;2023-04-08T05:51:00;100880.0;;;6.2;47.0
28456;BME280;15682;56.742;38.866;2023-04-08T05:53:00;100880.0;;;6.3;46.5
28456;BME280;15682;56.742;38.866;2023-04-08T05:55:01;100880.0;;;6.1;47.1
28456;BME280;15682;56.742;38.866;2023-04-08T05:57:01;100880.0;;;6.1;48.6
28456;BME280;15682;56.742;38.866;2023-04-08T05:59:01;100880.0;;;6.3;47.0
28456;BME280;15682;56.742;38.866;2023-04-08T06:01:02;100880.0;;;6.3;47.6
28456;BME280;15682;56.742;38.866;2023-04-08T06:03:02;100880.0;;;6.6;47.2
28456;BME280;15682;56.742;38.866;2023-04-08T06:05:03;100880.0;;;6.5;47.2
28456;BME280;15682;56.742;38.866;2023-04-08T06:07:03;100880.0;;;6.5;47.2
28456;BME280;15682;56.742;38.866;2023-04-08T06:09:03;100880.0;;;6.7;47.3
28456;BME280;15682;56.742;38.866;2023-04-08T06:11:04;100880.0;;;6.8;46.4
28456;BME280;15682;56.742;38.866;2023-04-08T06:13:04;100880.0;;;7.0;47.1
28456;BME280;15682;56.742;38.866;2023-04-08T06:15:06;100880.0;;;7.2;47.0
28456;BME280;15682;56.742;38.866;2023-04-08T06:17:05;100880.0;;;7.0;46.6
28456;BME280;15682;56.742;38.866;2023-04-08T06:19:05;100880.0;;;6.9;45.5
28456;BME280;15682;56.742;38.866;2023-04-08T06:21:06;100880.0;;;7.0;47.6
28456;BME280;15682;56.742;38.866;2023-04-08T06:23:06;100880.0;;;7.2;45.6
28456;BME280;15682;56.742;38.866;2023-04-08T06:25:07;100880.0;;;7.4;45.1
28456;BME280;15682;56.742;38.866;2023-04-08T06:27:07;100880.0;;;7.4;46.8
28456;BME280;15682;56.742;38.866;2023-04-08T06:29:07;100880.0;;;7.6;46.8
28456;BME280;15682;56.742;38.866;2023-04-08T06:31:08;100880.0;;;7.4;43.9
28456;BME280;15682;56.742;38.866;2023-04-08T06:33:08;100880.0;;;7.4;43.9
28456;BME280;15682;56.742;38.866;2023-04-08T06:35:09;100880.0;;;7.5;44.5
28456;BME280;15682;56.742;38.866;2023-04-08T06:37:09;100880.0;;;7.6;44.5
28456;BME280;15682;56.742;38.866;2023-04-08T06:39:09;100880.0;;;7.7;45.6
28456;BME280;15682;56.742;38.866;2023-04-08T06:41:10;100880.0;;;7.7;44.5
28456;BME280;15682;56.742;38.866;2023-04-08T06:43:10;100880.0;;;7.8;43.4
28456;BME280;15682;56.742;38.866;2023-04-08T06:45:11;100880.0;;;7.8;43.8
28456;BME280;15682;56.742;38.866;2023-04-08T06:47:11;100880.0;;;8.1;44.6
28456;BME280;15682;56.742;38.866;2023-04-08T06:49:12;100880.0;;;8.3;45.4
28456;BME280;15682;56.742;38.866;2023-04-08T06:51:12;100880.0;;;8.3;45.1
28456;BME280;15682;56.742;38.866;2023-04-08T06:53:12;100880.0;;;8.3;43.8
28456;BME280;15682;56.742;38.866;2023-04-08T06:55:13;100880.0;;;8.6;44.3
28456;BME280;15682;56.742;38.866;2023-04-08T06:57:13;100880.0;;;8.6;44.5
28456;BME280;15682;56.742;38.866;2023-04-08T06:59:13;100880.0;;;8.5;44.4
28456;BME280;15682;56.742;38.866;2023-04-08T07:01:14;100880.0;;;8.6;43.5
28456;BME280;15682;56.742;38.866;2023-04-08T07:03:14;100880.0;;;8.6;44.0
28456;BME280;15682;56.742;38.866;2023-04-08T07:05:15;100880.0;;;8.8;44.5
28456;BME280;15682;56.742;38.866;2023-04-08T07:07:15;100880.0;;;8.8;45.3
28456;BME280;15682;56.742;38.866;2023-04-08T07:09:15;100880.0;;;8.9;43.1
28456;BME280;15682;56.742;38.866;2023-04-08T07:11:15;100880.0;;;8.8;44.2
28456;BME280;15682;56.742;38.866;2023-04-08T07:13:16;100880.0;;;8.9;44.6
28456;BME280;15682;56.742;38.866;2023-04-08T07:15:18;100880.0;;;8.9;44.7
28456;BME280;15682;56.742;38.866;2023-04-08T07:17:16;100880.0;;;8.8;44.7
28456;BME280;15682;56.742;38.866;2023-04-08T07:19:16;100880.0;;;9.0;44.7
28456;BME280;15682;56.742;38.866;2023-04-08T07:21:16;100880.0;;;9.4;45.7
28456;BME280;15682;56.742;38.866;2023-04-08T07:23:17;100880.0;;;9.6;46.4
28456;BME280;15682;56.742;38.866;2023-04-08T07:25:17;100880.0;;;9.5;45.3
28456;BME280;15682;56.742;38.866;2023-04-08T07:27:17;100880.0;;;9.7;45.3
28456;BME280;15682;56.742;38.866;2023-04-08T07:29:17;100880.0;;;9.6;46.2
28456;BME280;15682;56.742;38.866;2023-04-08T07:31:17;100880.0;;;10.0;46.2
28456;BME280;15682;56.742;38.866;2023-04-08T07:33:17;100880.0;;;10.0;46.9
28456;BME280;15682;56.742;38.866;2023-04-08T07:35:18;100880.0;;;10.3;47.8
28456;BME280;15682;56.742;38.866;2023-04-08T07:37:18;100880.0;;;10.4;47.0
28456;BME280;15682;56.742;38.866;2023-04-08T07:39:18;100880.0;;;10.0;47.7
28456;BME280;15682;56.742;38.866;2023-04-08T07:41:18;100880.0;;;9.9;47.7
28456;BME280;15682;56.742;38.866;2023-04-08T07:43:18;100880.0;;;10.3;47.0
28456;BME280;15682;56.742;38.866;2023-04-08T07:45:19;100880.0;;;10.1;48.3
28456;BME280;15682;56.742;38.866;2023-04-08T07:47:18;100880.0;;;10.1;48.3
28456;BME280;15682;56.742;38.866;2023-04-08T07:49:18;100880.0;;;10.0;48.3
28456;BME280;15682;56.742;38.866;2023-04-08T07:51:19;100880.0;;;10.2;48.3
28456;BME280;15682;56.742;38.866;2023-04-08T07:53:19;100880.0;;;10.3;48.2
28456;BME280;15682;56.742;38.866;2023-04-08T07:55:19;100880.0;;;9.9;49.4
28456;BME280;15682;56.742;38.866;2023-04-08T07:57:19;100880.0;;;9.7;50.1
28456;BME280;15682;56.742;38.866;2023-04-08T07:59:19;100880.0;;;9.6;50.1
28456;BME280;15682;56.742;38.866;2023-04-08T08:01:21;100880.0;;;10.0;50.1
28456;BME280;15682;56.742;38.866;2023-04-08T08:03:19;100880.0;;;10.2;49.6
28456;BME280;15682;56.742;38.866;2023-04-08T08:05:20;100880.0;;;10.8;49.6
28456;BME280;15682;56.742;38.866;2023-04-08T08:07:20;100880.0;;;10.6;48.1
28456;BME280;15682;56.742;38.866;2023-04-08T08:09:20;100880.0;;;10.5;48.1
28456;BME280;15682;56.742;38.866;2023-04-08T08:11:20;100880.0;;;10.3;48.7
28456;BME280;15682;56.742;38.866;2023-04-08T08:13:20;100880.0;;;10.2;48.9
28456;BME280;15682;56.742;38.866;2023-04-08T08:15:20;100880.0;;;10.6;48.9
28456;BME280;15682;56.742;38.866;2023-04-08T08:17:20;100880.0;;;10.4;48.9
28456;BME280;15682;56.742;38.866;2023-04-08T08:19:20;100880.0;;;10.7;48.9
28456;BME280;15682;56.742;38.866;2023-04-08T08:21:20;100880.0;;;10.9;47.3
28456;BME280;15682;56.742;38.866;2023-04-08T08:23:21;100880.0;;;10.6;48.0
28456;BME280;15682;56.742;38.866;2023-04-08T08:25:21;100880.0;;;10.8;48.0
28456;BME280;15682;56.742;38.866;2023-04-08T08:27:21;100880.0;;;10.7;48.1
28456;BME280;15682;56.742;38.866;2023-04-08T08:29:21;100880.0;;;11.1;48.1
28456;BME280;15682;56.742;38.866;2023-04-08T08:31:21;100870.0;;;10.7;48.1
28456;BME280;15682;56.742;38.866;2023-04-08T08:33:21;100870.0;;;10.2;49.5
28456;BME280;15682;56.742;38.866;2023-04-08T08:35:21;100870.0;;;10.0;49.5
28456;BME280;15682;56.742;38.866;2023-04-08T08:37:22;100870.0;;;10.4;50.1
28456;BME280;15682;56.742;38.866;2023-04-08T08:39:22;100870.0;;;10.9;49.1
28456;BME280;15682;56.742;38.866;2023-04-08T08:41:22;100860.0;;;10.9;48.3
28456;BME280;15682;56.742;38.866;2023-04-08T08:43:22;100840.0;;;10.6;49.1
28456;BME280;15682;56.742;38.866;2023-04-08T08:45:22;100840.0;;;10.0;50.8
28456;BME280;15682;56.742;38.866;2023-04-08T08:47:22;100840.0;;;10.0;50.8
28456;BME280;15682;56.742;38.866;2023-04-08T08:49:22;100840.0;;;10.0;50.8
28456;BME280;15682;56.742;38.866;2023-04-08T08:51:23;100840.0;;;10.7;50.1
28456;BME280;15682;56.742;38.866;2023-04-08T08:53:28;100840.0;;;10.7;49.7
28456;BME280;15682;56.742;38.866;2023-04-08T08:55:23;100840.0;;;10.9;48.8
28456;BME280;15682;56.742;38.866;2023-04-08T08:57:23;100840.0;;;11.3;48.3
28456;BME280;15682;56.742;38.866;2023-04-08T08:59:23;100840.0;;;10.7;48.3
28456;BME280;15682;56.742;38.866;2023-04-08T09:01:32;100840.0;;;10.6;48.3
28456;BME280;15682;56.742;38.866;2023-04-08T09:03:25;100840.0;;;10.4;49.6
28456;BME280;15682;56.742;38.866;2023-04-08T09:05:23;100840.0;;;10.8;49.6
28456;BME280;15682;56.742;38.866;2023-04-08T09:07:24;100840.0;;;11.1;47.6
28456;BME280;15682;56.742;38.866;2023-04-08T09:09:24;100840.0;;;11.3;47.6
28456;BME280;15682;56.742;38.866;2023-04-08T09:11:25;100840.0;;;10.9;48.7
28456;BME280;15682;56.742;38.866;2023-04-08T09:13:24;100830.0;;;10.8;48.8
28456;BME280;15682;56.742;38.866;2023-04-08T09:15:24;100830.0;;;10.7;48.8
28456;BME280;15682;56.742;38.866;2023-04-08T09:17:33;100830.0;;;10.5;49.4
28456;BME280;15682;56.742;38.866;2023-04-08T09:19:24;100830.0;;;10.4;49.9
28456;BME280;15682;56.742;38.866;2023-04-08T09:21:25;100830.0;;;9.9;50.6
28456;BME280;15682;56.742;38.866;2023-04-08T09:23:36;100830.0;;;9.8;50.9
28456;BME280;15682;56.742;38.866;2023-04-08T09:25:26;100830.0;;;9.8;50.9
28456;BME280;15682;56.742;38.866;2023-04-08T09:27:33;100830.0;;;9.8;51.2
28456;BME280;15682;56.742;38.866;2023-04-08T09:29:25;100830.0;;;9.8;51.2
28456;BME280;15682;56.742;38.866;2023-04-08T09:31:27;100830.0;;;10.0;50.1
28456;BME280;15682;56.742;38.866;2023-04-08T09:33:29;100830.0;;;10.1;50.9
28456;BME280;15682;56.742;38.866;2023-04-08T09:35:25;100830.0;;;10.4;50.4
28456;BME280;15682;56.742;38.866;2023-04-08T09:37:26;100820.0;;;10.5;50.4
28456;BME280;15682;56.742;38.866;2023-04-08T09:39:26;100830.0;;;10.5;50.4
28456;BME280;15682;56.742;38.866;2023-04-08T09:41:27;100830.0;;;10.6;50.4
28456;BME280;15682;56.742;38.866;2023-04-08T09:43:26;100820.0;;;10.6;49.7
28456;BME280;15682;56.742;38.866;2023-04-08T09:45:26;100820.0;;;10.9;49.7
28456;BME280;15682;56.742;38.866;2023-04-08T09:47:28;100820.0;;;10.9;49.5
28456;BME280;15682;56.742;38.866;2023-04-08T09:49:28;100820.0;;;10.9;49.5
28456;BME280;15682;56.742;38.866;2023-04-08T09:51:31;100810.0;;;11.4;48.3
28456;BME280;15682;56.742;38.866;2023-04-08T09:53:33;100810.0;;;11.6;47.3
28456;BME280;15682;56.742;38.866;2023-04-08T09:55:29;100810.0;;;11.6;47.3
28456;BME280;15682;56.742;38.866;2023-04-08T09:57:30;100810.0;;;11.3;47.3
28456;BME280;15682;56.742;38.866;2023-04-08T09:59:30;100810.0;;;11.1;47.3
28456;BME280;15682;56.742;38.866;2023-04-08T10:01:31;100810.0;;;11.2;47.7
28456;BME280;15682;56.742;38.866;2023-04-08T10:03:29;100810.0;;;11.2;47.5
28456;BME280;15682;56.742;38.866;2023-04-08T10:05:28;100800.0;;;11.3;47.5
28456;BME280;15682;56.742;38.866;2023-04-08T10:07:28;100800.0;;;11.5;47.5
28456;BME280;15682;56.742;38.866;2023-04-08T10:09:28;100800.0;;;11.7;46.9
28456;BME280;15682;56.742;38.866;2023-04-08T10:11:29;100790.0;;;11.4;46.9
28456;BME280;15682;56.742;38.866;2023-04-08T10:13:28;100790.0;;;11.0;48.2
28456;BME280;15682;56.742;38.866;2023-04-08T10:15:30;100790.0;;;11.3;48.2
28456;BME280;15682;56.742;38.866;2023-04-08T10:17:28;100790.0;;;11.3;47.7
28456;BME280;15682;56.742;38.866;2023-04-08T10:19:36;100790.0;;;11.3;47.1
28456;BME280;15682;56.742;38.866;2023-04-08T10:21:33;100780.0;;;11.1;47.7
28456;BME280;15682;56.742;38.866;2023-04-08T10:23:53;100790.0;;;11.2;47.5
28456;BME280;15682;56.742;38.866;2023-04-08T10:25:31;100790.0;;;11.1;47.5
28456;BME280;15682;56.742;38.866;2023-04-08T10:27:38;100790.0;;;11.4;48.8
28456;BME280;15682;56.742;38.866;2023-04-08T10:29:32;100790.0;;;11.6;48.8
28456;BME280;15682;56.742;38.866;2023-04-08T10:31:29;100790.0;;;11.7;47.4
28456;BME280;15682;56.742;38.866;2023-04-08T10:33:32;100790.0;;;11.3;47.4
28456;BME280;15682;56.742;38.866;2023-04-08T10:35:31;100790.0;;;11.4;47.4
28456;BME280;15682;56.742;38.866;2023-04-08T10:37:30;100790.0;;;11.6;47.4
28456;BME280;15682;56.742;38.866;2023-04-08T10:39:30;100790.0;;;11.7;47.4
28456;BME280;15682;56.742;38.866;2023-04-08T10:41:30;100790.0;;;11.7;47.4
28456;BME280;15682;56.742;38.866;2023-04-08T10:43:32;100790.0;;;11.5;46.7
28456;BME280;15682;56.742;38.866;2023-04-08T10:45:30;100790.0;;;11.5;46.8
28456;BME280;15682;56.742;38.866;2023-04-08T10:47:31;100790.0;;;11.5;46.8
28456;BME280;15682;56.742;38.866;2023-04-08T10:49:32;100790.0;;;11.2;46.8
28456;BME280;15682;56.742;38.866;2023-04-08T10:51:31;100780.0;;;11.3;47.7